createdAt,value
2022-11-19T00:00:22.700Z,5.03
2022-11-19T00:02:54.830Z,5.04
2022-11-19T00:05:22.547Z,5.07
2022-11-19T00:07:51.551Z,5.09
2022-11-19T00:10:20.794Z,5.09
2022-11-19T00:12:57.428Z,5.12
2022-11-19T00:15:30.301Z,5.11
2022-11-19T00:18:00.770Z,5.15
2022-11-19T00:20:30.151Z,5.12
2022-11-19T00:22:59.198Z,5.17
2022-11-19T00:25:30.055Z,5.21
2022-11-19T00:28:00.357Z,5.14
2022-11-19T00:33:16.593Z,5.27
2022-11-19T00:35:46.733Z,5.29
2022-11-19T00:38:15.720Z,5.35
2022-11-19T00:40:44.713Z,5.32
2022-11-19T00:43:32.372Z,5.33
2022-11-19T00:46:01.261Z,5.32
2022-11-19T00:48:29.781Z,5.18
2022-11-19T00:50:58.797Z,5.33
2022-11-19T00:53:26.666Z,5.45
2022-11-19T00:55:55.972Z,5.36
2022-11-19T00:58:23.671Z,5.30
2022-11-19T01:00:55.256Z,5.44
2022-11-19T01:03:24.834Z,5.38
2022-11-19T01:05:54.370Z,5.47
2022-11-19T01:08:22.700Z,5.47
2022-11-19T01:10:50.769Z,5.40
2022-11-19T01:13:35.349Z,5.53
2022-11-19T01:16:41.076Z,5.52
2022-11-19T01:19:11.591Z,5.43
2022-11-19T01:21:39.270Z,5.49
2022-11-19T01:24:08.352Z,5.57
2022-11-19T01:26:36.154Z,5.40
2022-11-19T01:29:05.530Z,5.51
2022-11-19T01:31:33.632Z,5.49
2022-11-19T01:34:04.654Z,5.57
2022-11-19T01:36:33.990Z,5.54
2022-11-19T01:39:03.128Z,5.46
2022-11-19T01:41:33.435Z,5.46
2022-11-19T01:44:07.848Z,5.55
2022-11-19T01:46:39.966Z,5.57
2022-11-19T01:49:19.434Z,5.56
2022-11-19T01:51:51.298Z,5.51
2022-11-19T01:54:30.315Z,5.55
2022-11-19T01:57:06.525Z,5.63
2022-11-19T01:59:36.969Z,5.65
2022-11-19T02:02:06.238Z,5.43
2022-11-19T02:04:36.944Z,5.59
2022-11-19T02:07:07.875Z,5.59
2022-11-19T02:09:38.581Z,5.54
2022-11-19T02:12:16.788Z,5.66
2022-11-19T02:15:10.605Z,5.63
2022-11-19T02:18:03.482Z,5.73
2022-11-19T02:28:53.131Z,5.55
2022-11-19T02:31:22.838Z,5.62
2022-11-19T02:40:43.522Z,5.49
2022-11-19T02:43:18.752Z,5.71
2022-11-19T02:46:03.600Z,5.76
2022-11-19T02:48:39.785Z,5.61
2022-11-19T02:51:09.621Z,5.83
2022-11-19T02:53:38.510Z,5.92
2022-11-19T02:56:47.505Z,5.89
2022-11-19T02:59:37.935Z,5.98
2022-11-19T03:02:26.843Z,6.13
2022-11-19T03:04:56.334Z,6.26
2022-11-19T03:07:24.590Z,6.26
2022-11-19T03:09:56.827Z,6.41
2022-11-19T03:13:21.901Z,6.49
2022-11-19T03:16:12.367Z,6.53
2022-11-19T03:19:25.257Z,6.53
2022-11-19T03:22:04.326Z,6.66
2022-11-19T03:24:48.697Z,6.76
2022-11-19T03:27:39.713Z,6.74
2022-11-19T03:30:10.279Z,6.82
2022-11-19T03:33:06.480Z,6.84
2022-11-19T03:35:47.619Z,6.91
2022-11-19T03:38:22.478Z,6.93
2022-11-19T03:40:54.622Z,7.07
2022-11-19T03:43:32.835Z,7.16
2022-11-19T03:46:05.626Z,7.13
2022-11-19T03:48:41.449Z,7.20
2022-11-19T03:51:16.959Z,7.28
2022-11-19T03:53:49.730Z,7.36
2022-11-19T03:56:23.468Z,7.35
2022-11-19T03:58:54.450Z,7.34
2022-11-19T04:01:23.811Z,7.51
2022-11-19T04:04:12.926Z,7.53
2022-11-19T04:06:41.334Z,7.54
2022-11-19T04:09:14.440Z,7.50
2022-11-19T04:14:12.463Z,7.59
2022-11-19T04:16:41.158Z,7.45
2022-11-19T04:19:09.505Z,7.64
2022-11-19T04:21:37.390Z,7.61
2022-11-19T04:24:07.360Z,7.74
2022-11-19T04:26:37.294Z,7.88
2022-11-19T04:29:08.401Z,7.85
2022-11-19T04:31:37.367Z,7.93
2022-11-19T04:34:07.226Z,7.95
2022-11-19T04:36:38.968Z,8.10
2022-11-19T04:39:09.450Z,8.17
2022-11-19T04:41:39.417Z,8.32
2022-11-19T04:44:08.348Z,8.41
2022-11-19T04:46:37.818Z,8.45
2022-11-19T04:49:07.392Z,8.59
2022-11-19T04:51:37.990Z,8.55
2022-11-19T04:54:09.502Z,8.65
2022-11-19T04:56:38.675Z,8.68
2022-11-19T04:59:07.809Z,8.68
2022-11-19T05:01:39.023Z,8.67
2022-11-19T05:04:07.879Z,8.78
2022-11-19T05:06:37.759Z,8.79
2022-11-19T05:09:08.457Z,8.82
2022-11-19T05:11:38.434Z,8.83
2022-11-19T05:14:07.549Z,8.88
2022-11-19T05:16:36.383Z,8.93
2022-11-19T05:19:10.048Z,9.06
2022-11-19T05:21:39.514Z,9.14
2022-11-19T05:24:09.731Z,9.22
2022-11-19T05:26:38.374Z,9.30
2022-11-19T05:29:08.539Z,9.37
2022-11-19T05:31:37.739Z,9.37
2022-11-19T05:34:10.435Z,9.49
2022-11-19T05:36:39.521Z,9.47
2022-11-19T05:39:08.604Z,9.60
2022-11-19T05:41:37.477Z,9.75
2022-11-19T05:44:07.101Z,9.85
2022-11-19T05:46:35.356Z,9.93
2022-11-19T05:49:04.251Z,9.84
2022-11-19T05:51:33.359Z,9.89
2022-11-19T05:54:01.060Z,9.92
2022-11-19T05:56:31.012Z,9.92
2022-11-19T05:59:02.911Z,9.99
2022-11-19T06:01:33.622Z,9.97
2022-11-19T06:04:02.378Z,10.09
2022-11-19T06:06:34.748Z,10.18
2022-11-19T06:09:08.603Z,10.17
2022-11-19T06:11:54.606Z,10.21
2022-11-19T06:14:26.635Z,10.28
2022-11-19T06:16:59.010Z,10.26
2022-11-19T06:19:30.568Z,10.24
2022-11-19T06:22:00.451Z,10.26
2022-11-19T06:24:31.529Z,10.40
2022-11-19T06:27:01.822Z,10.46
2022-11-19T06:29:31.552Z,10.42
2022-11-19T06:32:01.204Z,10.45
2022-11-19T06:34:30.009Z,10.58
2022-11-19T06:36:59.090Z,10.56
2022-11-19T06:39:28.859Z,10.43
2022-11-19T06:42:18.975Z,10.49
2022-11-19T06:44:49.156Z,10.69
2022-11-19T06:47:17.694Z,10.73
2022-11-19T06:49:48.261Z,10.84
2022-11-19T06:52:20.236Z,10.98
2022-11-19T06:54:49.569Z,11.07
2022-11-19T06:57:17.467Z,11.15
2022-11-19T06:59:46.387Z,11.30
2022-11-19T07:02:17.841Z,11.40
2022-11-19T07:04:50.724Z,11.45
2022-11-19T07:07:20.824Z,11.47
2022-11-19T07:09:49.571Z,11.58
2022-11-19T07:12:18.780Z,11.62
2022-11-19T07:14:47.393Z,11.71
2022-11-19T07:17:16.466Z,11.68
2022-11-19T07:19:44.442Z,11.75
2022-11-19T07:22:13.305Z,11.78
2022-11-19T07:24:42.285Z,11.77
2022-11-19T07:27:10.554Z,11.79
2022-11-19T07:29:39.026Z,11.73
2022-11-19T07:32:08.289Z,11.78
2022-11-19T07:34:36.701Z,11.75
2022-11-19T07:37:06.484Z,11.77
2022-11-19T07:39:34.987Z,11.78
2022-11-19T07:42:23.968Z,11.80
2022-11-19T07:44:54.993Z,11.83
2022-11-19T07:47:25.352Z,11.78
2022-11-19T07:49:54.399Z,11.90
2022-11-19T07:52:22.376Z,11.85
2022-11-19T07:54:51.369Z,11.91
2022-11-19T07:57:24.601Z,11.91
2022-11-19T07:59:56.388Z,11.97
2022-11-19T08:02:29.328Z,12.07
2022-11-19T08:04:57.402Z,12.19
2022-11-19T08:07:26.781Z,12.19
2022-11-19T08:09:55.399Z,12.19
2022-11-19T08:12:24.677Z,12.21
2022-11-19T08:14:53.323Z,12.24
2022-11-19T08:17:40.948Z,12.29
2022-11-19T08:20:10.827Z,12.26
2022-11-19T08:22:41.452Z,12.35
2022-11-19T08:25:10.370Z,12.39
2022-11-19T08:27:40.408Z,12.53
2022-11-19T08:30:08.930Z,12.54
2022-11-19T08:32:42.479Z,12.67
2022-11-19T08:35:11.344Z,12.70
2022-11-19T08:37:41.277Z,12.72
2022-11-19T08:40:09.829Z,12.82
2022-11-19T08:43:01.229Z,12.91
2022-11-19T08:45:35.220Z,13.04
2022-11-19T08:48:07.216Z,13.09
2022-11-19T08:50:35.381Z,13.23
2022-11-19T08:53:05.714Z,13.29
2022-11-19T08:55:34.191Z,13.33
2022-11-19T08:58:07.877Z,13.37
2022-11-19T09:00:38.551Z,13.37
2022-11-19T09:03:10.316Z,13.48
2022-11-19T09:05:38.405Z,13.50
2022-11-19T09:08:08.466Z,13.69
2022-11-19T09:10:38.314Z,14.01
2022-11-19T09:13:25.313Z,14.08
2022-11-19T09:15:54.218Z,14.09
2022-11-19T09:18:22.368Z,14.15
2022-11-19T09:20:56.096Z,14.11
2022-11-19T09:23:25.953Z,14.09
2022-11-19T09:26:03.857Z,14.09
2022-11-19T09:28:32.806Z,14.14
2022-11-19T09:31:13.153Z,14.16
2022-11-19T09:33:43.107Z,14.49
2022-11-19T09:36:14.415Z,14.64
2022-11-19T09:38:43.605Z,14.68
2022-11-19T09:41:33.642Z,14.70
2022-11-19T09:44:04.394Z,14.69
2022-11-19T09:46:59.482Z,14.63
2022-11-19T09:49:49.556Z,14.60
2022-11-19T09:52:22.925Z,14.59
2022-11-19T09:54:56.869Z,14.68
2022-11-19T09:57:46.471Z,14.64
2022-11-19T10:00:25.448Z,14.68
2022-11-19T10:02:57.168Z,14.64
2022-11-19T10:05:39.585Z,14.73
2022-11-19T10:08:48.447Z,14.83
2022-11-19T10:11:55.065Z,14.99
2022-11-19T10:14:44.482Z,15.09
2022-11-19T10:17:28.725Z,14.95
2022-11-19T10:20:37.964Z,14.91
2022-11-19T10:23:25.520Z,14.87
2022-11-19T10:26:05.431Z,14.76
2022-11-19T10:28:40.253Z,14.77
2022-11-19T10:31:37.649Z,14.76
2022-11-19T10:34:23.607Z,14.67
2022-11-19T10:37:00.462Z,14.83
2022-11-19T10:39:58.754Z,14.91
2022-11-19T10:42:42.513Z,14.99
2022-11-19T10:45:21.792Z,14.87
2022-11-19T10:48:12.034Z,15.11
2022-11-19T10:50:43.203Z,14.98
2022-11-19T10:53:29.929Z,15.00
2022-11-19T10:56:04.752Z,15.02
2022-11-19T10:58:58.400Z,14.95
2022-11-19T11:01:37.659Z,15.14
2022-11-19T11:04:15.446Z,14.98
2022-11-19T11:06:53.358Z,14.91
2022-11-19T11:09:36.422Z,14.84
2022-11-19T11:12:33.995Z,14.89
2022-11-19T11:15:25.310Z,14.82
2022-11-19T11:18:10.727Z,14.75
2022-11-19T11:20:45.858Z,14.58
2022-11-19T11:23:28.790Z,14.66
2022-11-19T11:26:10.593Z,14.79
2022-11-19T11:29:05.528Z,14.70
2022-11-19T11:31:43.544Z,14.58
2022-11-19T11:34:40.431Z,14.42
2022-11-19T11:37:13.245Z,14.37
2022-11-19T11:39:48.263Z,14.32
2022-11-19T11:42:22.212Z,14.39
2022-11-19T11:44:58.773Z,14.31
2022-11-19T11:47:41.193Z,14.58
2022-11-19T11:50:17.669Z,14.71
2022-11-19T11:52:54.025Z,14.78
2022-11-19T11:55:28.331Z,14.36
2022-11-19T11:58:08.190Z,14.39
2022-11-19T12:00:47.258Z,14.31
2022-11-19T12:03:23.937Z,14.33
2022-11-19T12:06:15.916Z,14.36
2022-11-19T12:09:09.916Z,14.20
2022-11-19T12:11:55.806Z,14.09
2022-11-19T12:14:50.296Z,13.92
2022-11-19T12:17:48.694Z,13.82
2022-11-19T12:20:56.014Z,13.75
2022-11-19T12:24:02.708Z,13.54
2022-11-19T12:26:50.348Z,13.38
2022-11-19T12:30:12.647Z,13.05
2022-11-19T12:33:06.437Z,13.00
2022-11-19T12:36:05.968Z,13.01
2022-11-19T12:39:07.484Z,12.85
2022-11-19T12:41:58.341Z,12.72
2022-11-19T12:44:52.152Z,12.48
2022-11-19T12:47:22.084Z,12.41
2022-11-19T12:50:16.668Z,12.18
2022-11-19T12:53:21.174Z,12.19
2022-11-19T12:56:21.824Z,12.02
2022-11-19T12:58:56.445Z,11.98
2022-11-19T13:01:38.898Z,11.93
2022-11-19T13:04:37.595Z,11.56
2022-11-19T13:07:23.642Z,11.42
2022-11-19T13:12:54.879Z,11.42
2022-11-19T13:16:08.359Z,11.19
2022-11-19T13:18:49.980Z,11.13
2022-11-19T13:21:35.695Z,11.01
2022-11-19T13:24:31.845Z,10.87
2022-11-19T13:27:06.783Z,10.66
2022-11-19T13:30:38.004Z,10.40
2022-11-19T13:33:50.863Z,10.35
2022-11-19T13:36:35.433Z,10.42
2022-11-19T13:39:26.390Z,10.28
2022-11-19T13:42:15.913Z,10.18
2022-11-19T13:44:47.415Z,9.90
2022-11-19T13:47:29.632Z,9.84
2022-11-19T13:50:02.853Z,9.80
2022-11-19T13:52:42.992Z,9.92
2022-11-19T13:55:48.068Z,9.73
2022-11-19T13:58:27.088Z,9.64
2022-11-19T14:01:18.924Z,9.31
2022-11-19T14:04:29.833Z,9.24
2022-11-19T14:07:36.196Z,9.07
2022-11-19T14:10:27.585Z,9.10
2022-11-19T14:17:04.287Z,9.13
2022-11-19T14:20:17.257Z,9.10
2022-11-19T14:23:19.949Z,8.96
2022-11-19T14:26:12.252Z,8.77
2022-11-19T14:29:04.423Z,8.87
2022-11-19T14:32:10.829Z,8.75
2022-11-19T14:35:19.236Z,8.22
2022-11-19T14:38:45.479Z,8.23
2022-11-19T14:41:27.231Z,8.07
2022-11-19T14:44:32.656Z,8.24
2022-11-19T14:47:33.853Z,8.23
2022-11-19T14:50:11.197Z,8.35
2022-11-19T14:53:03.423Z,8.20
2022-11-19T14:55:54.870Z,8.17
2022-11-19T14:58:34.442Z,8.38
2022-11-19T15:01:22.475Z,8.41
2022-11-19T15:04:03.690Z,8.43
2022-11-19T15:06:52.924Z,8.40
2022-11-19T15:10:15.590Z,8.18
2022-11-19T15:12:52.368Z,8.03
2022-11-19T15:15:33.280Z,7.99
2022-11-19T15:22:09.163Z,7.55
2022-11-19T15:25:16.503Z,7.36
2022-11-19T15:28:27.079Z,7.31
2022-11-19T15:31:28.613Z,7.50
2022-11-19T15:34:56.277Z,7.50
2022-11-19T15:56:57.320Z,7.32
2022-11-19T15:59:44.104Z,7.25
2022-11-19T16:14:55.945Z,6.93
2022-11-19T16:17:56.182Z,6.77
2022-11-19T16:24:02.575Z,6.85
2022-11-19T16:26:44.447Z,6.73
2022-11-19T16:29:34.296Z,6.82
2022-11-19T16:46:36.725Z,6.61
2022-11-19T16:55:57.388Z,6.44
2022-11-19T17:01:40.020Z,6.43
2022-11-19T17:04:17.603Z,6.38
2022-11-19T17:09:47.782Z,6.66
2022-11-19T17:13:07.375Z,6.59
2022-11-19T17:21:38.658Z,6.55
2022-11-19T17:27:17.106Z,6.43
2022-11-19T17:30:00.419Z,6.42
2022-11-19T17:35:52.403Z,6.35
2022-11-19T17:38:33.549Z,6.34
2022-11-19T17:41:07.109Z,6.30
2022-11-19T17:50:01.703Z,6.22
2022-11-19T18:01:40.914Z,6.40
2022-11-19T18:04:22.948Z,6.18
2022-11-19T18:16:36.373Z,6.02
2022-11-19T18:19:46.413Z,6.04
2022-11-19T18:22:23.946Z,6.08
2022-11-19T18:24:54.284Z,6.06
2022-11-19T18:27:25.740Z,6.06
2022-11-19T18:30:03.822Z,5.99
2022-11-19T18:32:49.849Z,6.17
2022-11-19T18:35:23.623Z,6.06
2022-11-19T18:38:08.262Z,5.93
2022-11-19T18:44:06.224Z,5.92
2022-11-19T18:46:41.718Z,6.00
2022-11-19T18:49:23.220Z,5.90
2022-11-19T18:52:03.226Z,5.97
2022-11-19T19:03:36.121Z,5.83
2022-11-19T19:06:10.642Z,5.66
2022-11-19T19:08:40.522Z,5.85
2022-11-19T19:20:01.139Z,5.48
2022-11-19T19:22:45.857Z,5.62
2022-11-19T19:25:18.821Z,5.72
2022-11-19T19:28:14.432Z,5.78
2022-11-19T19:31:00.606Z,5.72
2022-11-19T19:42:19.011Z,5.44
2022-11-19T19:45:04.825Z,5.37
2022-11-19T19:47:53.238Z,5.51
2022-11-19T19:50:36.974Z,5.47
2022-11-19T19:53:22.942Z,5.47
2022-11-19T19:56:27.684Z,5.42
2022-11-19T19:59:03.927Z,5.25
2022-11-19T20:01:48.549Z,5.42
2022-11-19T20:04:22.928Z,5.42
2022-11-19T20:06:54.983Z,5.39
2022-11-19T20:09:27.425Z,5.51
2022-11-19T20:12:02.811Z,5.52
2022-11-19T20:17:20.425Z,5.46
2022-11-19T20:19:54.306Z,5.50
2022-11-19T20:22:26.474Z,5.38
2022-11-19T20:24:57.960Z,5.39
2022-11-19T20:33:15.893Z,5.54
2022-11-19T20:35:55.798Z,5.60
2022-11-19T20:38:30.994Z,5.56
2022-11-19T20:41:07.024Z,5.53
2022-11-19T20:44:02.549Z,5.44
2022-11-19T20:46:34.343Z,5.42
2022-11-19T20:49:03.854Z,5.42
2022-11-19T20:51:38.086Z,5.39
2022-11-19T20:54:14.530Z,5.23
2022-11-19T20:56:44.193Z,5.25
2022-11-19T20:59:14.122Z,5.23
2022-11-19T21:01:44.487Z,5.24
2022-11-19T21:04:16.750Z,5.43
2022-11-19T21:06:55.107Z,5.56
2022-11-19T21:09:26.163Z,5.59
2022-11-19T21:12:00.194Z,5.45
2022-11-19T21:14:30.800Z,5.45
2022-11-19T21:17:03.826Z,5.45
2022-11-19T21:19:37.113Z,5.34
2022-11-19T21:22:07.958Z,5.48
2022-11-19T21:24:37.882Z,5.47
2022-11-19T21:30:03.150Z,5.45
2022-11-19T21:38:34.251Z,5.21
2022-11-19T21:41:07.841Z,5.26
2022-11-19T21:43:37.434Z,5.26
2022-11-19T21:46:08.150Z,5.26
2022-11-19T21:48:39.528Z,5.16
2022-11-19T21:51:10.386Z,5.15
2022-11-19T21:53:47.755Z,5.13
2022-11-19T21:56:18.247Z,5.23
2022-11-19T21:58:50.255Z,5.24
2022-11-19T22:01:23.503Z,5.16
2022-11-19T22:03:52.626Z,5.38
2022-11-19T22:06:23.314Z,5.18
2022-11-19T22:08:52.844Z,5.16
2022-11-19T22:11:34.881Z,4.97
2022-11-19T22:14:09.579Z,4.89
2022-11-19T22:16:42.908Z,4.90
2022-11-19T22:21:58.714Z,5.00
2022-11-19T22:24:32.379Z,5.07
2022-11-19T22:27:07.437Z,5.03
2022-11-19T22:29:38.304Z,5.25
2022-11-19T22:32:07.368Z,5.19
2022-11-19T22:34:37.543Z,4.99
2022-11-19T22:37:07.594Z,5.00
2022-11-19T22:39:37.268Z,4.93
2022-11-19T22:42:07.462Z,5.04
2022-11-19T22:44:38.949Z,5.13
2022-11-19T22:47:11.508Z,4.91
2022-11-19T22:49:45.192Z,4.89
2022-11-19T22:52:17.963Z,4.84
2022-11-19T22:54:50.133Z,4.70
2022-11-19T22:57:18.513Z,4.80
2022-11-19T22:59:50.659Z,4.83
2022-11-19T23:02:19.280Z,5.11
2022-11-19T23:04:57.318Z,4.88
2022-11-19T23:07:26.889Z,4.84
2022-11-19T23:09:56.629Z,4.81
2022-11-19T23:12:44.913Z,4.90
2022-11-19T23:15:13.767Z,4.91
2022-11-19T23:17:44.700Z,4.99
2022-11-19T23:20:16.110Z,4.78
2022-11-19T23:22:47.420Z,4.65
2022-11-19T23:25:18.579Z,4.83
2022-11-19T23:27:49.346Z,4.72
2022-11-19T23:30:22.718Z,4.63
2022-11-19T23:32:52.468Z,4.70
2022-11-19T23:38:07.589Z,4.69
2022-11-19T23:40:40.085Z,4.73
2022-11-19T23:49:18.100Z,4.77
2022-11-19T23:51:49.712Z,4.82
